Time,TemperatureF,DewpointF,PressureIn,WindDirection,WindDirectionDegrees,WindSpeedMPH,WindSpeedGustMPH,Humidity,HourlyPrecipIn,Conditions,Clouds,dailyrainin,SoftwareType,DateUTC
2013-09-20 00:03:00,67.0,66.0,-100.00,SSW,200,4.0,6.0,97,-99.99,,,-99.99,,2013-09-20 05:03:00,
2013-09-20 00:11:00,66.0,65.0,-100.00,SW,220,2.0,4.0,97,-99.99,,,-99.99,,2013-09-20 05:11:00,
2013-09-20 00:43:00,66.0,65.0,-100.00,SW,220,2.0,4.0,97,-99.99,,,-99.99,,2013-09-20 05:43:00,
2013-09-20 00:53:00,66.0,65.0,-100.00,SW,220,2.0,4.0,97,-99.99,,,-99.99,,2013-09-20 05:53:00,
2013-09-20 01:03:00,66.0,65.0,-100.00,SW,220,2.0,4.0,97,-99.99,,,-99.99,,2013-09-20 06:03:00,
2013-09-20 02:42:00,65.0,64.0,-100.00,SSW,200,3.0,5.0,97,-99.99,,,-99.99,,2013-09-20 07:42:00,
2013-09-20 02:53:00,65.0,64.0,-100.00,SSW,200,3.0,5.0,97,-99.99,,,-99.99,,2013-09-20 07:53:00,
2013-09-20 03:02:00,65.0,64.0,-100.00,SSW,200,3.0,5.0,97,-99.99,,,-99.99,,2013-09-20 08:02:00,
2013-09-20 03:11:00,65.0,64.0,-100.00,SSW,200,3.0,5.0,97,-99.99,,,-99.99,,2013-09-20 08:11:00,
2013-09-20 03:12:00,65.0,65.0,-100.00,WSW,245,6.0,9.0,97,-99.99,,,-99.99,,2013-09-20 08:12:00,
2013-09-20 03:42:00,65.0,65.0,-100.00,WSW,245,6.0,9.0,97,-99.99,,,-99.99,,2013-09-20 08:42:00,
2013-09-20 03:52:00,65.0,65.0,-100.00,WSW,245,6.0,9.0,97,-99.99,,,-99.99,,2013-09-20 08:52:00,
2013-09-20 04:01:00,65.0,65.0,-100.00,WSW,245,6.0,9.0,97,-99.99,,,-99.99,,2013-09-20 09:01:00,
2013-09-20 04:12:00,65.0,64.0,-100.00,West,270,4.0,9.0,97,-99.99,,,-99.99,,2013-09-20 09:12:00,
2013-09-20 04:44:00,65.0,64.0,-100.00,West,270,4.0,9.0,97,-99.99,,,-99.99,,2013-09-20 09:44:00,
2013-09-20 04:53:00,65.0,64.0,-100.00,West,270,4.0,9.0,97,-99.99,,,-99.99,,2013-09-20 09:53:00,
2013-09-20 05:03:00,65.0,64.0,-100.00,West,270,4.0,9.0,97,-99.99,,,-99.99,,2013-09-20 10:03:00,
2013-09-20 05:12:00,64.0,63.0,-100.00,West,260,6.0,9.0,97,-99.99,,,-99.99,,2013-09-20 10:12:00,
2013-09-20 05:42:00,64.0,63.0,-100.00,West,260,6.0,9.0,97,-99.99,,,-99.99,,2013-09-20 10:42:00,
2013-09-20 05:53:00,64.0,63.0,-100.00,West,260,6.0,9.0,97,-99.99,,,-99.99,,2013-09-20 10:53:00,
2013-09-20 06:03:00,64.0,63.0,-100.00,West,260,6.0,9.0,97,-99.99,,,-99.99,,2013-09-20 11:03:00,
2013-09-20 06:12:00,64.0,63.0,-100.00,West,265,6.0,9.0,97,-99.99,,,-99.99,,2013-09-20 11:12:00,
2013-09-20 06:42:00,64.0,63.0,-100.00,West,265,6.0,9.0,97,-99.99,,,-99.99,,2013-09-20 11:42:00,
2013-09-20 06:52:00,64.0,63.0,-100.00,West,265,6.0,9.0,97,-99.99,,,-99.99,,2013-09-20 11:52:00,
2013-09-20 07:02:00,64.0,63.0,-100.00,West,265,6.0,9.0,97,-99.99,,,-99.99,,2013-09-20 12:02:00,
2013-09-20 07:43:00,63.0,62.0,-100.00,West,260,5.0,9.0,97,-99.99,,,-99.99,,2013-09-20 12:43:00,
2013-09-20 07:52:00,63.0,62.0,-100.00,West,260,5.0,9.0,97,-99.99,,,-99.99,,2013-09-20 12:52:00,
2013-09-20 08:02:00,63.0,62.0,-100.00,West,260,5.0,9.0,97,-99.99,,,-99.99,,2013-09-20 13:02:00,
2013-09-20 08:10:00,63.0,62.0,-100.00,West,265,7.0,14.0,96,-99.99,,,-99.99,,2013-09-20 13:10:00,
2013-09-20 08:42:00,63.0,62.0,-100.00,West,265,7.0,14.0,96,-99.99,,,-99.99,,2013-09-20 13:42:00,
2013-09-20 08:52:00,63.0,62.0,-100.00,West,265,7.0,14.0,96,-99.99,,,-99.99,,2013-09-20 13:52:00,
2013-09-20 09:02:00,63.0,62.0,-100.00,West,265,7.0,14.0,96,-99.99,,,-99.99,,2013-09-20 14:02:00,
2013-09-20 09:10:00,62.0,59.0,-100.00,WSW,255,7.0,17.0,92,-99.99,,,-99.99,,2013-09-20 14:10:00,
2013-09-20 09:42:00,62.0,59.0,-100.00,WSW,255,7.0,17.0,92,-99.99,,,-99.99,,2013-09-20 14:42:00,
2013-09-20 09:52:00,62.0,59.0,-100.00,WSW,255,7.0,17.0,92,-99.99,,,-99.99,,2013-09-20 14:52:00,
2013-09-20 10:02:00,62.0,59.0,-100.00,WSW,255,7.0,17.0,92,-99.99,,,-99.99,,2013-09-20 15:02:00,
2013-09-20 10:11:00,61.0,58.0,-100.00,West,265,9.0,13.0,90,-99.99,,,-99.99,,2013-09-20 15:11:00,
2013-09-20 10:44:00,61.0,58.0,-100.00,West,265,9.0,13.0,90,-99.99,,,-99.99,,2013-09-20 15:44:00,
2013-09-20 10:54:00,61.0,58.0,-100.00,West,265,9.0,13.0,90,-99.99,,,-99.99,,2013-09-20 15:54:00,
2013-09-20 11:04:00,61.0,58.0,-100.00,West,265,9.0,13.0,90,-99.99,,,-99.99,,2013-09-20 16:04:00,
2013-09-20 11:10:00,60.0,57.0,-100.00,West,265,9.0,14.0,90,-99.99,,,-99.99,,2013-09-20 16:10:00,
2013-09-20 11:43:00,60.0,57.0,-100.00,West,265,9.0,14.0,90,-99.99,,,-99.99,,2013-09-20 16:43:00,
2013-09-20 11:53:00,60.0,57.0,-100.00,West,265,9.0,14.0,90,-99.99,,,-99.99,,2013-09-20 16:53:00,
2013-09-20 12:03:00,60.0,57.0,-100.00,West,265,9.0,14.0,90,-99.99,,,-99.99,,2013-09-20 17:03:00,
2013-09-20 12:10:00,61.0,57.0,-100.00,WSW,250,7.0,16.0,86,-99.99,,,-99.99,,2013-09-20 17:10:00,
2013-09-20 12:43:00,61.0,57.0,-100.00,WSW,250,7.0,16.0,86,-99.99,,,-99.99,,2013-09-20 17:43:00,
2013-09-20 12:53:00,61.0,57.0,-100.00,WSW,250,7.0,16.0,86,-99.99,,,-99.99,,2013-09-20 17:53:00,
2013-09-20 13:02:00,61.0,57.0,-100.00,WSW,250,7.0,16.0,86,-99.99,,,-99.99,,2013-09-20 18:02:00,
2013-09-20 13:11:00,63.0,53.0,-100.00,West,265,12.0,22.0,68,-99.99,,,-99.99,,2013-09-20 18:11:00,
2013-09-20 13:42:00,63.0,53.0,-100.00,West,265,12.0,22.0,68,-99.99,,,-99.99,,2013-09-20 18:42:00,
2013-09-20 13:52:00,63.0,53.0,-100.00,West,265,12.0,22.0,68,-99.99,,,-99.99,,2013-09-20 18:52:00,
2013-09-20 14:02:00,63.0,53.0,-100.00,West,265,12.0,22.0,68,-99.99,,,-99.99,,2013-09-20 19:02:00,
2013-09-20 14:42:00,63.0,53.0,-100.00,WSW,250,6.0,14.0,71,-99.99,,,-99.99,,2013-09-20 19:42:00,
2013-09-20 14:53:00,63.0,53.0,-100.00,WSW,250,6.0,14.0,71,-99.99,,,-99.99,,2013-09-20 19:53:00,
2013-09-20 15:03:00,63.0,53.0,-100.00,WSW,250,6.0,14.0,71,-99.99,,,-99.99,,2013-09-20 20:03:00,
2013-09-20 15:12:00,65.0,52.0,-100.00,West,270,11.0,16.0,63,-99.99,,,-99.99,,2013-09-20 20:12:00,
2013-09-20 15:42:00,65.0,52.0,-100.00,West,270,11.0,16.0,63,-99.99,,,-99.99,,2013-09-20 20:42:00,
2013-09-20 15:52:00,65.0,52.0,-100.00,West,270,11.0,16.0,63,-99.99,,,-99.99,,2013-09-20 20:52:00,
2013-09-20 16:02:00,65.0,52.0,-100.00,West,270,11.0,16.0,63,-99.99,,,-99.99,,2013-09-20 21:02:00,
2013-09-20 16:11:00,63.0,52.0,-100.00,WSW,240,7.0,15.0,67,-99.99,,,-99.99,,2013-09-20 21:11:00,
2013-09-20 16:45:00,63.0,52.0,-100.00,WSW,240,7.0,15.0,67,-99.99,,,-99.99,,2013-09-20 21:45:00,
2013-09-20 16:55:00,63.0,52.0,-100.00,WSW,240,7.0,15.0,67,-99.99,,,-99.99,,2013-09-20 21:55:00,
2013-09-20 17:00:00,62.0,56.0,-100.00,West,265,5.0,13.0,83,-99.99,,,-99.99,,2013-09-20 22:00:00,
2013-09-20 17:04:00,63.0,52.0,-100.00,WSW,240,7.0,15.0,67,-99.99,,,-99.99,,2013-09-20 22:04:00,
2013-09-20 17:44:00,62.0,56.0,-100.00,West,265,5.0,13.0,83,-99.99,,,-99.99,,2013-09-20 22:44:00,
2013-09-20 17:53:00,62.0,56.0,-100.00,West,265,5.0,13.0,83,-99.99,,,-99.99,,2013-09-20 22:53:00,
2013-09-20 18:42:00,58.0,56.0,-100.00,West,280,6.0,14.0,92,-99.99,,,-99.99,,2013-09-20 23:42:00,
2013-09-20 18:53:00,58.0,56.0,-100.00,West,280,6.0,14.0,92,-99.99,,,-99.99,,2013-09-20 23:53:00,
2013-09-20 19:02:00,58.0,56.0,-100.00,West,280,6.0,14.0,92,-99.99,,,-99.99,,2013-09-21 00:02:00,
2013-09-20 19:11:00,58.0,56.0,-100.00,West,280,6.0,14.0,92,-99.99,,,-99.99,,2013-09-21 00:11:00,
2013-09-20 19:42:00,58.0,55.0,-100.00,West,260,4.0,7.0,90,-99.99,,,-99.99,,2013-09-21 00:42:00,
2013-09-20 19:52:00,58.0,55.0,-100.00,West,260,4.0,7.0,90,-99.99,,,-99.99,,2013-09-21 00:52:00,
2013-09-20 20:02:00,58.0,55.0,-100.00,West,260,4.0,7.0,90,-99.99,,,-99.99,,2013-09-21 01:02:00,
2013-09-20 20:12:00,58.0,55.0,-100.00,West,260,4.0,7.0,90,-99.99,,,-99.99,,2013-09-21 01:12:00,
2013-09-20 20:42:00,57.0,54.0,-100.00,West,265,4.0,9.0,90,-99.99,,,-99.99,,2013-09-21 01:42:00,
2013-09-20 20:52:00,57.0,54.0,-100.00,West,265,4.0,9.0,90,-99.99,,,-99.99,,2013-09-21 01:52:00,
2013-09-20 21:02:00,57.0,54.0,-100.00,West,265,4.0,9.0,90,-99.99,,,-99.99,,2013-09-21 02:02:00,
2013-09-20 21:42:00,56.0,53.0,-100.00,West,265,4.0,7.0,92,-99.99,,,-99.99,,2013-09-21 02:42:00,
2013-09-20 21:52:00,56.0,53.0,-100.00,West,265,4.0,7.0,92,-99.99,,,-99.99,,2013-09-21 02:52:00,
2013-09-20 22:02:00,56.0,53.0,-100.00,West,265,4.0,7.0,92,-99.99,,,-99.99,,2013-09-21 03:02:00,
2013-09-20 22:12:00,56.0,53.0,-100.00,West,265,4.0,7.0,92,-99.99,,,-99.99,,2013-09-21 03:12:00,
2013-09-20 22:14:00,53.0,51.0,-100.00,West,270,2.0,6.0,93,-99.99,,,-99.99,,2013-09-21 03:14:00,
2013-09-20 22:44:00,53.0,51.0,-100.00,West,270,2.0,6.0,93,-99.99,,,-99.99,,2013-09-21 03:44:00,
2013-09-20 22:55:00,53.0,51.0,-100.00,West,270,2.0,6.0,93,-99.99,,,-99.99,,2013-09-21 03:55:00,
2013-09-20 23:04:00,53.0,51.0,-100.00,West,270,2.0,6.0,93,-99.99,,,-99.99,,2013-09-21 04:04:00,
2013-09-20 23:11:00,52.0,50.0,-100.00,West,265,4.0,6.0,95,-99.99,,,-99.99,,2013-09-21 04:11:00,
2013-09-20 23:44:00,52.0,50.0,-100.00,West,265,4.0,6.0,95,-99.99,,,-99.99,,2013-09-21 04:44:00,
2013-09-20 23:54:00,52.0,50.0,-100.00,West,265,4.0,6.0,95,-99.99,,,-99.99,,2013-09-21 04:54:00,